Time;durP1;ratioP1;P1;durP2;ratioP2;P2;SDS_P1;SDS_P2;PMS_P1;PMS_P2;Temp;Humidity;BMP_temperature;BMP_pressure;BME280_temperature;BME280_humidity;BME280_pressure;Samples;Min_cycle;Max_cycle;Signal;HPM_P1;HPM_P2
2022/04/24 16:58:53;;;;;;;3.33;2.15;;;25.80;31.30;;;;;;5087786;22;20064;-60
2022/04/24 17:01:20;;;;;;;5.32;2.30;;;25.20;32.60;;;;;;5068198;28;20493;-60
2022/04/24 17:03:47;;;;;;;4.70;2.53;;;24.70;33.10;;;;;;5067777;28;20477;-60
2022/04/24 17:06:14;;;;;;;4.67;2.30;;;24.50;33.70;;;;;;5054682;28;20040;-60
2022/04/24 17:08:41;;;;;;;4.78;2.33;;;24.10;34.10;;;;;;5056204;28;20041;-59
2022/04/24 17:11:07;;;;;;;2.40;2.00;;;24.00;34.90;;;;;;5064419;28;20492;-59
2022/04/24 17:13:33;;;;;;;3.60;2.13;;;23.90;34.40;;;;;;5079767;28;20153;-60
2022/04/24 17:16:01;;;;;;;5.15;2.38;;;23.80;34.70;;;;;;5072661;28;20513;-60
2022/04/24 17:18:29;;;;;;;4.55;2.05;;;23.50;35.00;;;;;;5060150;28;20044;-60
2022/04/24 17:20:55;;;;;;;4.25;2.25;;;23.40;35.00;;;;;;5074111;28;20511;-61
2022/04/24 17:23:21;;;;;;;3.50;2.42;;;23.10;34.40;;;;;;5078949;28;20036;-59
2022/04/24 17:25:46;;;;;;;3.17;1.83;;;23.50;34.50;;;;;;5079673;28;20036;-60
2022/04/24 17:28:13;;;;;;;2.95;2.22;;;24.10;33.50;;;;;;5075313;28;20067;-60
2022/04/24 17:30:42;;;;;;;3.95;2.13;;;24.10;33.10;;;;;;5072571;28;20040;-57
2022/04/24 17:33:07;;;;;;;5.28;2.30;;;23.50;33.30;;;;;;5072881;28;20029;-58
2022/04/24 17:35:33;;;;;;;3.28;1.90;;;22.50;34.70;;;;;;5082285;28;20039;-57
2022/04/24 17:37:59;;;;;;;3.38;2.05;;;21.70;36.10;;;;;;5083669;28;20040;-58
2022/04/24 17:40:25;;;;;;;3.67;2.58;;;20.80;37.30;;;;;;5079030;28;20129;-56
2022/04/24 17:42:53;;;;;;;4.30;2.38;;;19.70;40.00;;;;;;5088457;28;20617;-58
2022/04/24 17:45:19;;;;;;;3.45;2.47;;;18.80;40.40;;;;;;5085471;28;20033;-58
2022/04/24 17:47:45;;;;;;;2.88;2.08;;;18.30;43.20;;;;;;5077725;28;20042;-57
2022/04/24 17:50:12;;;;;;;3.00;2.00;;;17.50;45.30;;;;;;5085991;28;20039;-58
2022/04/24 17:52:38;;;;;;;2.58;1.83;;;17.10;45.80;;;;;;5075965;28;20051;-56
2022/04/24 17:55:05;;;;;;;3.17;2.40;;;16.50;47.40;;;;;;5077701;28;20400;-57
2022/04/24 17:57:31;;;;;;;3.35;1.88;;;16.20;49.50;;;;;;5076797;28;20040;-60
2022/04/24 17:59:57;;;;;;;3.08;2.00;;;15.90;48.00;;;;;;5076655;28;20503;-57
2022/04/24 18:02:23;;;;;;;4.82;1.90;;;15.60;49.20;;;;;;5081087;28;20040;-58
2022/04/24 18:04:49;;;;;;;5.13;2.63;;;15.40;51.10;;;;;;5089914;28;20434;-58
2022/04/24 18:07:15;;;;;;;3.13;1.80;;;15.20;50.90;;;;;;5078295;28;20094;-56
2022/04/24 18:09:41;;;;;;;3.85;1.63;;;14.90;51.60;;;;;;5081946;28;20032;-55
2022/04/24 18:12:07;;;;;;;3.60;1.92;;;14.90;51.10;;;;;;5092502;28;20156;-57
2022/04/24 18:14:33;;;;;;;3.08;2.40;;;14.80;51.70;;;;;;5093007;28;20104;-57
2022/04/24 18:16:59;;;;;;;4.28;2.00;;;14.70;51.70;;;;;;5092407;28;20570;-57
2022/04/24 18:22:48;;;;;;;3.85;2.13;;;14.40;53.90;;;;;;5057342;28;20132;-60
2022/04/24 18:25:14;;;;;;;4.00;1.92;;;14.30;53.90;;;;;;5068910;28;20029;-60
2022/04/24 18:27:40;;;;;;;5.20;1.92;;;14.20;53.10;;;;;;5060455;28;20401;-60
2022/04/24 18:30:06;;;;;;;2.80;1.77;;;14.00;55.20;;;;;;5053316;28;20048;-60
2022/04/24 18:32:33;;;;;;;4.73;2.07;;;13.90;56.20;;;;;;5052873;28;20060;-60
2022/04/24 18:34:59;;;;;;;2.20;1.58;;;13.70;55.40;;;;;;5034252;28;20116;-58
2022/04/24 18:37:37;;;;;;;3.83;2.08;;;13.60;56.70;;;;;;5053210;28;20067;-58
2022/04/24 18:40:09;;;;;;;2.30;1.55;;;13.40;58.30;;;;;;5053113;28;20382;-58
2022/04/24 18:42:37;;;;;;;3.15;2.10;;;13.30;60.90;;;;;;5053047;28;20072;-59
2022/04/24 18:45:04;;;;;;;5.93;2.10;;;13.20;62.30;;;;;;5053052;28;20529;-58
2022/04/24 18:47:30;;;;;;;6.15;1.90;;;13.10;62.80;;;;;;5052875;28;20029;-58
2022/04/24 18:49:56;;;;;;;4.88;2.63;;;12.90;65.40;;;;;;5053195;28;20091;-58
2022/04/24 18:52:23;;;;;;;5.00;1.77;;;12.80;67.40;;;;;;5035059;28;20037;-59
2022/04/24 18:54:53;;;;;;;4.38;2.00;;;12.60;70.10;;;;;;5052784;28;20484;-58
2022/04/24 18:57:20;;;;;;;5.65;1.67;;;12.50;70.50;;;;;;5051455;28;20056;-58
2022/04/24 18:59:46;;;;;;;5.30;1.70;;;12.40;72.90;;;;;;5034994;28;20064;-58
2022/04/24 19:02:13;;;;;;;3.75;1.52;;;12.20;74.00;;;;;;5052701;28;20029;-58
2022/04/24 19:07:32;;;;;;;4.78;1.40;;;12.00;79.30;;;;;;5052680;28;20048;-59
2022/04/24 19:12:47;;;;;;;3.70;1.20;;;11.70;81.30;;;;;;5052875;28;20128;-58
2022/04/24 19:15:19;;;;;;;4.57;1.30;;;11.60;82.90;;;;;;5052771;28;20119;-58
2022/04/24 19:17:47;;;;;;;3.63;1.40;;;11.50;84.20;;;;;;5052423;28;20249;-58
2022/04/24 19:20:16;;;;;;;4.65;1.40;;;11.40;84.60;;;;;;5052515;28;20033;-58
2022/04/24 19:22:46;;;;;;;2.38;1.48;;;11.30;85.00;;;;;;5034677;28;20037;-58
2022/04/24 19:25:13;;;;;;;5.15;1.50;;;11.20;84.80;;;;;;5052552;28;20029;-58
2022/04/24 19:27:41;;;;;;;3.00;1.13;;;11.10;84.70;;;;;;5034620;28;20137;-58
2022/04/24 19:30:09;;;;;;;3.63;0.95;;;11.10;87.20;;;;;;5052484;28;20037;-58
2022/04/24 19:32:35;;;;;;;;;;;10.90;86.00;;;;;;5052897;28;20052;-58
2022/04/24 19:35:03;;;;;;;6.22;1.33;;;10.80;85.70;;;;;;5052511;28;19904;-58
2022/04/24 19:37:29;;;;;;;4.93;1.10;;;10.80;86.20;;;;;;5052229;28;20044;-58
2022/04/24 19:39:55;;;;;;;1.75;1.15;;;10.70;85.90;;;;;;5052335;28;20154;-58
2022/04/24 19:42:21;;;;;;;2.75;1.20;;;10.60;86.70;;;;;;5052346;28;20033;-58
2022/04/24 19:44:46;;;;;;;2.20;1.50;;;10.50;87.50;;;;;;5052391;28;20419;-58
2022/04/24 19:47:12;;;;;;;6.55;1.40;;;10.50;87.50;;;;;;5052201;28;20473;-58
2022/04/24 19:49:41;;;;;;;2.95;0.98;;;10.40;87.40;;;;;;5052409;28;20143;-58
2022/04/24 19:52:07;;;;;;;1.83;1.13;;;10.30;88.30;;;;;;5052154;28;20503;-58
2022/04/24 19:54:33;;;;;;;1.27;0.98;;;10.30;87.90;;;;;;5052248;28;20555;-58
2022/04/24 19:56:59;;;;;;;4.00;0.95;;;10.30;88.80;;;;;;5034018;28;20041;-58
2022/04/24 19:59:25;;;;;;;3.20;0.70;;;10.20;89.20;;;;;;5053234;28;20435;-61
2022/04/24 20:01:51;;;;;;;1.58;0.90;;;10.20;90.00;;;;;;5056117;28;20031;-61
2022/04/24 20:04:18;;;;;;;1.85;1.02;;;10.10;90.20;;;;;;5056074;28;20043;-61
2022/04/24 20:06:45;;;;;;;2.75;1.27;;;10.10;90.90;;;;;;5055787;28;20408;-61
2022/04/24 20:09:11;;;;;;;1.02;1.00;;;10.00;91.30;;;;;;5055892;28;20504;-61
2022/04/24 20:11:41;;;;;;;2.55;1.20;;;9.90;91.00;;;;;;5055985;28;20094;-61
2022/04/24 20:14:07;;;;;;;2.25;1.20;;;9.80;91.80;;;;;;5055911;28;20492;-61
2022/04/24 20:16:33;;;;;;;3.17;1.52;;;9.80;91.60;;;;;;5055692;28;20519;-61
2022/04/24 20:19:00;;;;;;;3.08;1.13;;;9.70;92.10;;;;;;5054453;28;20116;-61
2022/04/24 20:21:27;;;;;;;4.15;1.20;;;9.70;92.40;;;;;;5055317;28;20070;-61
2022/04/24 20:23:54;;;;;;;2.50;0.90;;;9.60;92.80;;;;;;5055545;28;20029;-61
2022/04/24 20:26:21;;;;;;;2.70;1.35;;;9.60;93.30;;;;;;5055404;28;20500;-61
2022/04/24 20:28:50;;;;;;;3.58;1.60;;;9.50;93.10;;;;;;5055256;28;20043;-60
2022/04/24 20:31:16;;;;;;;5.80;1.45;;;9.40;93.50;;;;;;5054220;28;20058;-60
2022/04/24 20:33:43;;;;;;;3.28;1.58;;;9.40;93.70;;;;;;5054485;28;20041;-61
2022/04/24 20:36:10;;;;;;;6.07;1.88;;;9.30;93.80;;;;;;5055236;28;20041;-60
2022/04/24 20:38:39;;;;;;;5.20;1.20;;;9.30;94.40;;;;;;5037158;28;20040;-61
2022/04/24 20:41:05;;;;;;;3.70;1.20;;;9.20;94.50;;;;;;5055512;28;20098;-61
2022/04/24 20:43:30;;;;;;;4.47;2.28;;;9.10;95.10;;;;;;5055244;28;20036;-60
2022/04/24 20:45:56;;;;;;;4.78;1.75;;;9.00;94.90;;;;;;5055171;28;20400;-60
2022/04/24 20:48:22;;;;;;;4.18;1.48;;;9.00;95.30;;;;;;5055351;28;20380;-60
2022/04/24 20:50:49;;;;;;;2.38;1.60;;;8.90;95.60;;;;;;5054995;28;20037;-60
2022/04/24 20:53:16;;;;;;;3.30;1.45;;;9.00;95.70;;;;;;5055193;28;20137;-60
2022/04/24 20:55:41;;;;;;;5.38;1.50;;;9.00;95.90;;;;;;5055027;28;20456;-60
2022/04/24 20:58:07;;;;;;;2.17;1.17;;;8.90;95.60;;;;;;5054774;28;20080;-60
2022/04/24 21:00:33;;;;;;;6.32;1.67;;;8.90;96.20;;;;;;5054883;28;20108;-60
2022/04/24 21:02:59;;;;;;;4.90;1.52;;;8.90;96.80;;;;;;5054871;28;20025;-61
2022/04/24 21:05:25;;;;;;;4.30;1.27;;;8.80;96.80;;;;;;5054852;28;20451;-61
2022/04/24 21:07:51;;;;;;;3.97;1.45;;;8.70;97.10;;;;;;5054799;28;20464;-60
2022/04/24 21:10:18;;;;;;;2.70;1.73;;;8.60;96.80;;;;;;5054220;28;20044;-60
2022/04/24 21:12:43;;;;;;;2.60;1.70;;;8.70;97.60;;;;;;5054050;28;20087;-60
2022/04/24 21:15:09;;;;;;;4.25;1.33;;;8.70;98.00;;;;;;5054622;28;20041;-61
2022/04/24 21:17:36;;;;;;;6.22;2.42;;;8.70;98.30;;;;;;5054344;28;20037;-61
2022/04/24 21:20:03;;;;;;;3.00;1.77;;;8.70;97.90;;;;;;5054454;28;20048;-61
2022/04/24 21:22:29;;;;;;;4.70;1.80;;;8.60;97.60;;;;;;5054469;28;20029;-60
2022/04/24 21:24:54;;;;;;;5.32;1.50;;;8.60;98.50;;;;;;5054513;28;20037;-58
2022/04/24 21:27:20;;;;;;;2.13;1.50;;;8.60;98.80;;;;;;5054397;28;20044;-58
2022/04/24 21:29:46;;;;;;;6.03;1.60;;;8.50;98.90;;;;;;5054323;28;20041;-58
2022/04/24 21:32:12;;;;;;;5.07;1.83;;;8.50;99.00;;;;;;5054357;28;20112;-61
2022/04/24 21:34:37;;;;;;;9.40;2.25;;;8.50;99.40;;;;;;5054178;28;20500;-58
2022/04/24 21:37:03;;;;;;;1.83;1.70;;;8.40;99.40;;;;;;5054290;28;20043;-58
2022/04/24 21:39:29;;;;;;;4.68;1.92;;;8.40;99.40;;;;;;5054172;28;20076;-58
2022/04/24 21:41:54;;;;;;;4.45;1.92;;;8.30;99.90;;;;;;5054136;28;20036;-61
2022/04/24 21:44:23;;;;;;;6.85;2.10;;;8.30;99.90;;;;;;5054053;28;20051;-61
2022/04/24 21:46:49;;;;;;;6.88;1.75;;;8.30;99.90;;;;;;5053981;28;20044;-61
2022/04/24 21:49:16;;;;;;;4.07;2.60;;;8.20;99.90;;;;;;5054109;28;20056;-61
2022/04/24 21:51:42;;;;;;;8.27;2.13;;;8.20;99.90;;;;;;5053950;28;20476;-58
2022/04/24 21:54:08;;;;;;;5.05;2.10;;;8.20;99.90;;;;;;5053902;28;20083;-58
2022/04/24 21:56:34;;;;;;;4.32;1.58;;;8.10;99.90;;;;;;5053991;28;20045;-58
2022/04/24 21:59:00;;;;;;;3.22;1.50;;;8.00;99.90;;;;;;5053445;28;20045;-58
2022/04/24 22:04:21;;;;;;;2.67;1.98;;;7.90;99.90;;;;;;5053508;28;20079;-58
2022/04/24 22:04:25;;;;;;;5.18;2.03;;;7.80;99.90;;;;;;5053613;28;20084;-58
2022/04/24 22:06:53;;;;;;;3.45;1.83;;;7.80;99.90;;;;;;5053642;28;20370;-58
2022/04/24 22:09:20;;;;;;;6.25;2.53;;;7.80;99.90;;;;;;5053581;28;20489;-58
2022/04/24 22:11:47;;;;;;;7.22;2.35;;;7.70;99.90;;;;;;5053425;28;20182;-58
2022/04/24 22:14:13;;;;;;;6.43;2.42;;;7.60;99.90;;;;;;5053735;28;20045;-58
2022/04/24 22:16:41;;;;;;;4.43;2.28;;;7.70;99.90;;;;;;5053355;28;20025;-58
2022/04/24 22:19:06;;;;;;;6.03;2.20;;;7.60;99.90;;;;;;5053263;28;20037;-58
2022/04/24 22:24:26;;;;;;;4.50;2.28;;;7.50;99.90;;;;;;5053307;28;20086;-58
2022/04/24 22:26:53;;;;;;;4.97;2.20;;;7.40;99.90;;;;;;5053593;28;20036;-59
2022/04/24 22:29:19;;;;;;;;;;;7.40;99.90;;;;;;5053553;28;20037;-61
2022/04/24 22:31:46;;;;;;;9.18;2.00;;;7.40;99.90;;;;;;5053166;28;20371;-61
2022/04/24 22:34:12;;;;;;;7.30;2.78;;;7.40;99.90;;;;;;5053262;28;20503;-61
2022/04/24 22:36:38;;;;;;;4.57;2.10;;;7.50;99.90;;;;;;5053109;28;20043;-61
2022/04/24 22:39:03;;;;;;;8.38;2.35;;;7.40;99.90;;;;;;5052917;28;20104;-61
2022/04/24 22:41:29;;;;;;;5.05;2.83;;;7.40;99.90;;;;;;5053012;28;20033;-61
2022/04/24 22:43:55;;;;;;;4.93;3.08;;;7.30;99.90;;;;;;5053019;28;20507;-61
2022/04/24 22:46:21;;;;;;;4.97;2.20;;;7.30;99.90;;;;;;5053047;28;20040;-61
2022/04/24 22:48:47;;;;;;;8.98;2.78;;;7.20;99.90;;;;;;5035013;28;20036;-61
2022/04/24 22:51:13;;;;;;;5.43;2.50;;;7.10;99.90;;;;;;5052807;28;20082;-61
2022/04/24 22:53:39;;;;;;;7.07;2.33;;;7.00;99.90;;;;;;5052728;28;20102;-61
2022/04/24 22:56:05;;;;;;;5.55;2.20;;;6.90;99.90;;;;;;5052750;28;20500;-61
2022/04/24 22:58:31;;;;;;;4.80;2.13;;;6.80;99.90;;;;;;5052379;28;20041;-61
2022/04/24 23:00:56;;;;;;;7.60;2.80;;;6.80;99.90;;;;;;5052826;28;20063;-58
2022/04/24 23:03:22;;;;;;;5.97;2.33;;;6.70;99.90;;;;;;5052737;28;20083;-59
2022/04/24 23:05:48;;;;;;;8.77;3.28;;;6.70;99.90;;;;;;5052800;28;20044;-59
2022/04/24 23:08:15;;;;;;;5.00;3.08;;;6.70;99.90;;;;;;5052401;28;20112;-59
2022/04/24 23:10:41;;;;;;;6.15;2.88;;;6.70;99.90;;;;;;5052541;28;20033;-58
2022/04/24 23:13:07;;;;;;;6.70;2.88;;;6.70;99.90;;;;;;5052696;28;20040;-58
2022/04/24 23:15:32;;;;;;;7.50;3.00;;;6.70;99.90;;;;;;5052449;28;20029;-59
2022/04/24 23:20:56;;;;;;;7.72;2.50;;;6.70;99.90;;;;;;5029542;28;20033;-59
2022/04/24 23:23:22;;;;;;;8.55;2.90;;;6.60;99.90;;;;;;5052486;28;20112;-59
2022/04/24 23:25:47;;;;;;;9.30;2.85;;;6.60;99.90;;;;;;5052450;28;20052;-59
2022/04/24 23:28:13;;;;;;;6.95;2.40;;;6.60;99.90;;;;;;5052415;28;20049;-61
2022/04/24 23:30:39;;;;;;;7.18;2.85;;;6.60;99.90;;;;;;5052330;28;20041;-61
2022/04/24 23:33:04;;;;;;;6.30;2.63;;;6.60;99.90;;;;;;5052321;28;20067;-61
2022/04/24 23:35:30;;;;;;;5.50;2.28;;;6.50;99.90;;;;;;5055305;28;20067;-61
2022/04/24 23:37:56;;;;;;;3.60;2.28;;;6.50;99.90;;;;;;5056426;28;20159;-59
2022/04/24 23:40:22;;;;;;;6.20;2.58;;;6.40;99.90;;;;;;5056424;28;20072;-58
2022/04/24 23:42:48;;;;;;;8.95;3.30;;;6.30;99.90;;;;;;5056345;28;20048;-58
2022/04/24 23:45:14;;;;;;;6.57;2.45;;;6.30;99.90;;;;;;5056347;28;20116;-58
2022/04/24 23:47:41;;;;;;;9.52;3.17;;;6.30;99.90;;;;;;5056129;28;20043;-58
2022/04/24 23:50:07;;;;;;;8.45;3.22;;;6.20;99.90;;;;;;5056022;28;20045;-58
2022/04/24 23:52:33;;;;;;;5.70;3.10;;;6.20;99.90;;;;;;5056119;28;20129;-59
2022/04/24 23:54:59;;;;;;;6.45;3.08;;;6.30;99.90;;;;;;5038248;28;20467;-58
2022/04/24 23:57:24;;;;;;;7.05;2.90;;;6.40;99.90;;;;;;5056162;28;20045;-58
2022/04/24 23:59:50;;;;;;;6.30;3.63;;;6.30;99.90;;;;;;5055956;28;20400;-59
